sensor_id;sensor_type;location;lat;lon;timestamp;pressure;altitude;pressure_sealevel;temperature;humidity
25722;BME280;13578;53.450;15.496;2022-07-03T00:02:45;100502.41;;;15.87;100.00
25722;BME280;13578;53.450;15.496;2022-07-03T00:05:46;100497.44;;;15.91;100.00
25722;BME280;13578;53.450;15.496;2022-07-03T00:08:47;100507.78;;;15.89;100.00
25722;BME280;13578;53.450;15.496;2022-07-03T00:11:48;100504.72;;;15.82;100.00
25722;BME280;13578;53.450;15.496;2022-07-03T00:14:49;100498.91;;;15.85;100.00
25722;BME280;13578;53.450;15.496;2022-07-03T00:17:51;100499.41;;;15.71;100.00
25722;BME280;13578;53.450;15.496;2022-07-03T00:21:04;100503.03;;;15.71;100.00
25722;BME280;13578;53.450;15.496;2022-07-03T00:24:13;100508.28;;;15.75;100.00
25722;BME280;13578;53.450;15.496;2022-07-03T00:27:15;100503.31;;;15.78;100.00
25722;BME280;13578;53.450;15.496;2022-07-03T00:30:16;100511.44;;;15.90;100.00
25722;BME280;13578;53.450;15.496;2022-07-03T00:33:17;100512.59;;;15.87;100.00
25722;BME280;13578;53.450;15.496;2022-07-03T00:36:19;100511.19;;;15.83;100.00
25722;BME280;13578;53.450;15.496;2022-07-03T00:39:20;100503.88;;;15.82;100.00
25722;BME280;13578;53.450;15.496;2022-07-03T00:42:20;100497.66;;;15.70;100.00
25722;BME280;13578;53.450;15.496;2022-07-03T00:45:21;100505.50;;;15.75;100.00
25722;BME280;13578;53.450;15.496;2022-07-03T00:48:22;100498.56;;;15.70;100.00
25722;BME280;13578;53.450;15.496;2022-07-03T00:51:26;100494.19;;;15.68;100.00
25722;BME280;13578;53.450;15.496;2022-07-03T00:54:27;100495.78;;;15.70;100.00
25722;BME280;13578;53.450;15.496;2022-07-03T00:57:30;100492.41;;;15.77;100.00
25722;BME280;13578;53.450;15.496;2022-07-03T01:00:31;100499.13;;;15.74;100.00
25722;BME280;13578;53.450;15.496;2022-07-03T01:03:39;100494.19;;;15.68;100.00
25722;BME280;13578;53.450;15.496;2022-07-03T01:06:51;100497.34;;;15.55;100.00
25722;BME280;13578;53.450;15.496;2022-07-03T01:10:12;100504.44;;;15.57;100.00
25722;BME280;13578;53.450;15.496;2022-07-03T01:20:38;100502.53;;;15.58;100.00
25722;BME280;13578;53.450;15.496;2022-07-03T01:27:07;100496.59;;;15.53;100.00
25722;BME280;13578;53.450;15.496;2022-07-03T01:30:11;100493.84;;;15.53;100.00
25722;BME280;13578;53.450;15.496;2022-07-03T01:33:16;100491.81;;;15.55;100.00
25722;BME280;13578;53.450;15.496;2022-07-03T01:36:18;100482.06;;;15.51;100.00
25722;BME280;13578;53.450;15.496;2022-07-03T01:39:23;100480.22;;;15.42;100.00
25722;BME280;13578;53.450;15.496;2022-07-03T01:42:28;100478.22;;;15.34;100.00
25722;BME280;13578;53.450;15.496;2022-07-03T01:45:31;100471.38;;;15.38;100.00
25722;BME280;13578;53.450;15.496;2022-07-03T01:48:33;100469.69;;;15.27;100.00
25722;BME280;13578;53.450;15.496;2022-07-03T01:51:34;100461.84;;;15.22;100.00
25722;BME280;13578;53.450;15.496;2022-07-03T01:54:35;100462.06;;;15.29;100.00
25722;BME280;13578;53.450;15.496;2022-07-03T01:57:45;100461.69;;;15.24;100.00
25722;BME280;13578;53.450;15.496;2022-07-03T02:00:55;100461.78;;;15.32;100.00
25722;BME280;13578;53.450;15.496;2022-07-03T02:04:04;100452.97;;;15.19;100.00
25722;BME280;13578;53.450;15.496;2022-07-03T02:07:20;100444.22;;;15.23;100.00
25722;BME280;13578;53.450;15.496;2022-07-03T02:10:28;100445.59;;;15.09;100.00
25722;BME280;13578;53.450;15.496;2022-07-03T02:13:31;100451.38;;;15.16;100.00
25722;BME280;13578;53.450;15.496;2022-07-03T02:17:09;100454.06;;;14.98;100.00
25722;BME280;13578;53.450;15.496;2022-07-03T02:20:15;100449.94;;;15.12;100.00
25722;BME280;13578;53.450;15.496;2022-07-03T02:23:18;100452.75;;;15.02;100.00
25722;BME280;13578;53.450;15.496;2022-07-03T02:26:27;100448.69;;;14.97;100.00
25722;BME280;13578;53.450;15.496;2022-07-03T02:29:33;100444.34;;;14.94;100.00
25722;BME280;13578;53.450;15.496;2022-07-03T02:32:39;100452.34;;;14.97;100.00
25722;BME280;13578;53.450;15.496;2022-07-03T02:35:40;100456.41;;;14.93;100.00
25722;BME280;13578;53.450;15.496;2022-07-03T02:38:43;100441.91;;;14.81;100.00
25722;BME280;13578;53.450;15.496;2022-07-03T02:41:58;100441.88;;;14.91;100.00
25722;BME280;13578;53.450;15.496;2022-07-03T02:45:03;100430.81;;;14.91;100.00
25722;BME280;13578;53.450;15.496;2022-07-03T02:48:12;100441.69;;;15.02;100.00
25722;BME280;13578;53.450;15.496;2022-07-03T02:51:22;100440.56;;;14.95;100.00
25722;BME280;13578;53.450;15.496;2022-07-03T02:54:24;100434.69;;;15.08;100.00
25722;BME280;13578;53.450;15.496;2022-07-03T02:57:36;100434.69;;;15.08;100.00
25722;BME280;13578;53.450;15.496;2022-07-03T03:00:39;100433.66;;;15.09;100.00
25722;BME280;13578;53.450;15.496;2022-07-03T03:03:51;100443.28;;;15.05;100.00
25722;BME280;13578;53.450;15.496;2022-07-03T03:07:14;100445.31;;;15.03;100.00
25722;BME280;13578;53.450;15.496;2022-07-03T03:10:19;100432.78;;;15.08;100.00
25722;BME280;13578;53.450;15.496;2022-07-03T03:13:21;100439.34;;;15.07;100.00
25722;BME280;13578;53.450;15.496;2022-07-03T03:16:25;100433.63;;;15.19;100.00
25722;BME280;13578;53.450;15.496;2022-07-03T03:19:26;100426.38;;;15.82;100.00
25722;BME280;13578;53.450;15.496;2022-07-03T03:25:51;100437.56;;;17.32;100.00
25722;BME280;13578;53.450;15.496;2022-07-03T03:28:55;100419.56;;;17.95;100.00
25722;BME280;13578;53.450;15.496;2022-07-03T03:31:56;100423.91;;;18.31;100.00
25722;BME280;13578;53.450;15.496;2022-07-03T03:34:57;100431.03;;;18.17;100.00
25722;BME280;13578;53.450;15.496;2022-07-03T03:37:58;100429.09;;;18.17;100.00
25722;BME280;13578;53.450;15.496;2022-07-03T03:40:59;100427.53;;;18.48;100.00
25722;BME280;13578;53.450;15.496;2022-07-03T03:43:59;100440.47;;;19.13;100.00
25722;BME280;13578;53.450;15.496;2022-07-03T03:47:00;100440.22;;;19.31;100.00
25722;BME280;13578;53.450;15.496;2022-07-03T03:50:02;100435.69;;;19.39;100.00
25722;BME280;13578;53.450;15.496;2022-07-03T03:53:04;100436.66;;;19.54;100.00
25722;BME280;13578;53.450;15.496;2022-07-03T03:56:08;100432.47;;;19.50;100.00
25722;BME280;13578;53.450;15.496;2022-07-03T03:59:09;100437.97;;;19.98;100.00
25722;BME280;13578;53.450;15.496;2022-07-03T04:02:10;100437.25;;;20.27;100.00
25722;BME280;13578;53.450;15.496;2022-07-03T04:05:10;100444.00;;;20.33;100.00
25722;BME280;13578;53.450;15.496;2022-07-03T04:08:11;100443.00;;;20.64;100.00
25722;BME280;13578;53.450;15.496;2022-07-03T04:11:13;100443.16;;;20.86;100.00
25722;BME280;13578;53.450;15.496;2022-07-03T04:14:13;100435.25;;;20.59;100.00
25722;BME280;13578;53.450;15.496;2022-07-03T04:17:14;100436.69;;;20.32;100.00
25722;BME280;13578;53.450;15.496;2022-07-03T04:20:15;100437.28;;;20.42;100.00
25722;BME280;13578;53.450;15.496;2022-07-03T04:23:16;100430.13;;;20.25;100.00
25722;BME280;13578;53.450;15.496;2022-07-03T04:26:17;100432.03;;;20.24;100.00
25722;BME280;13578;53.450;15.496;2022-07-03T04:29:18;100434.53;;;19.96;100.00
25722;BME280;13578;53.450;15.496;2022-07-03T04:32:18;100430.63;;;19.74;100.00
25722;BME280;13578;53.450;15.496;2022-07-03T04:35:19;100426.72;;;19.60;100.00
25722;BME280;13578;53.450;15.496;2022-07-03T04:38:19;100426.59;;;19.76;100.00
25722;BME280;13578;53.450;15.496;2022-07-03T04:41:20;100425.03;;;20.05;100.00
25722;BME280;13578;53.450;15.496;2022-07-03T04:44:21;100418.47;;;19.98;100.00
25722;BME280;13578;53.450;15.496;2022-07-03T04:47:21;100432.34;;;20.06;100.00
25722;BME280;13578;53.450;15.496;2022-07-03T04:50:22;100430.56;;;20.13;100.00
25722;BME280;13578;53.450;15.496;2022-07-03T04:53:23;100422.94;;;20.07;100.00
25722;BME280;13578;53.450;15.496;2022-07-03T04:56:23;100425.63;;;20.39;100.00
25722;BME280;13578;53.450;15.496;2022-07-03T04:59:24;100424.16;;;20.51;100.00
25722;BME280;13578;53.450;15.496;2022-07-03T05:02:24;100416.44;;;20.38;100.00
25722;BME280;13578;53.450;15.496;2022-07-03T05:05:25;100420.56;;;20.42;100.00
25722;BME280;13578;53.450;15.496;2022-07-03T05:08:26;100419.41;;;20.13;100.00
25722;BME280;13578;53.450;15.496;2022-07-03T05:11:26;100421.50;;;20.35;100.00
25722;BME280;13578;53.450;15.496;2022-07-03T05:14:27;100410.75;;;20.08;100.00
25722;BME280;13578;53.450;15.496;2022-07-03T05:17:28;100418.50;;;20.59;100.00
25722;BME280;13578;53.450;15.496;2022-07-03T05:20:28;100418.66;;;20.81;100.00
25722;BME280;13578;53.450;15.496;2022-07-03T05:23:29;100423.97;;;20.91;100.00
25722;BME280;13578;53.450;15.496;2022-07-03T05:26:30;100427.03;;;20.96;100.00
25722;BME280;13578;53.450;15.496;2022-07-03T05:29:30;100426.25;;;21.02;100.00
25722;BME280;13578;53.450;15.496;2022-07-03T05:32:31;100429.94;;;21.03;100.00
25722;BME280;13578;53.450;15.496;2022-07-03T05:35:32;100435.22;;;21.27;100.00
25722;BME280;13578;53.450;15.496;2022-07-03T05:38:32;100428.25;;;21.38;100.00
25722;BME280;13578;53.450;15.496;2022-07-03T05:41:52;100438.38;;;21.69;100.00
25722;BME280;13578;53.450;15.496;2022-07-03T05:44:52;100436.41;;;21.85;100.00
25722;BME280;13578;53.450;15.496;2022-07-03T05:47:53;100445.47;;;21.87;100.00
25722;BME280;13578;53.450;15.496;2022-07-03T05:50:54;100440.03;;;21.85;100.00
25722;BME280;13578;53.450;15.496;2022-07-03T05:53:54;100430.56;;;22.01;100.00
25722;BME280;13578;53.450;15.496;2022-07-03T05:56:55;100428.13;;;21.77;100.00
25722;BME280;13578;53.450;15.496;2022-07-03T05:59:55;100429.34;;;21.89;100.00
25722;BME280;13578;53.450;15.496;2022-07-03T06:02:56;100424.19;;;22.08;100.00
25722;BME280;13578;53.450;15.496;2022-07-03T06:05:59;100423.97;;;22.09;100.00
25722;BME280;13578;53.450;15.496;2022-07-03T06:08:59;100426.09;;;22.29;100.00
25722;BME280;13578;53.450;15.496;2022-07-03T06:12:00;100421.19;;;22.31;100.00
25722;BME280;13578;53.450;15.496;2022-07-03T06:15:00;100421.59;;;22.49;100.00
25722;BME280;13578;53.450;15.496;2022-07-03T06:18:01;100425.19;;;22.43;100.00
25722;BME280;13578;53.450;15.496;2022-07-03T06:21:02;100416.72;;;22.58;100.00
25722;BME280;13578;53.450;15.496;2022-07-03T06:24:02;100414.16;;;22.63;100.00
25722;BME280;13578;53.450;15.496;2022-07-03T06:27:03;100407.31;;;22.66;100.00
25722;BME280;13578;53.450;15.496;2022-07-03T06:30:05;100414.31;;;22.83;100.00
25722;BME280;13578;53.450;15.496;2022-07-03T06:33:06;100412.09;;;22.72;100.00
25722;BME280;13578;53.450;15.496;2022-07-03T06:36:07;100414.16;;;22.92;100.00
25722;BME280;13578;53.450;15.496;2022-07-03T06:39:08;100415.75;;;23.01;100.00
25722;BME280;13578;53.450;15.496;2022-07-03T06:42:08;100422.28;;;23.15;100.00
25722;BME280;13578;53.450;15.496;2022-07-03T06:45:09;100414.84;;;23.29;100.00
25722;BME280;13578;53.450;15.496;2022-07-03T06:48:10;100412.97;;;23.43;100.00
25722;BME280;13578;53.450;15.496;2022-07-03T06:51:10;100414.44;;;23.32;100.00
25722;BME280;13578;53.450;15.496;2022-07-03T06:54:11;100415.75;;;23.36;100.00
25722;BME280;13578;53.450;15.496;2022-07-03T06:57:13;100404.84;;;23.13;100.00
25722;BME280;13578;53.450;15.496;2022-07-03T07:00:14;100407.13;;;23.38;100.00
25722;BME280;13578;53.450;15.496;2022-07-03T07:03:14;100397.00;;;23.30;100.00
25722;BME280;13578;53.450;15.496;2022-07-03T07:06:15;100411.94;;;23.51;100.00
25722;BME280;13578;53.450;15.496;2022-07-03T07:09:16;61865.25;;;-148.94;100.00
25722;BME280;13578;53.450;15.496;2022-07-03T07:12:16;61865.25;;;-148.94;100.00
25722;BME280;13578;53.450;15.496;2022-07-03T07:15:17;61865.25;;;-148.94;100.00
25722;BME280;13578;53.450;15.496;2022-07-03T07:18:18;61865.25;;;-148.94;100.00
25722;BME280;13578;53.450;15.496;2022-07-03T07:21:19;61865.25;;;-148.94;100.00
25722;BME280;13578;53.450;15.496;2022-07-03T07:24:19;61865.25;;;-148.94;100.00
25722;BME280;13578;53.450;15.496;2022-07-03T07:27:20;61865.25;;;-148.94;100.00
25722;BME280;13578;53.450;15.496;2022-07-03T07:30:21;61865.25;;;-148.94;100.00
25722;BME280;13578;53.450;15.496;2022-07-03T07:33:22;61865.25;;;-148.94;100.00
25722;BME280;13578;53.450;15.496;2022-07-03T07:36:22;61865.25;;;-148.94;100.00
25722;BME280;13578;53.450;15.496;2022-07-03T07:39:23;61865.25;;;-148.94;100.00
25722;BME280;13578;53.450;15.496;2022-07-03T07:42:24;61865.25;;;-148.94;100.00
25722;BME280;13578;53.450;15.496;2022-07-03T07:45:24;61865.25;;;-148.94;100.00
25722;BME280;13578;53.450;15.496;2022-07-03T07:48:25;61865.25;;;-148.94;100.00
25722;BME280;13578;53.450;15.496;2022-07-03T07:51:26;61865.25;;;-148.94;100.00
25722;BME280;13578;53.450;15.496;2022-07-03T07:54:26;61865.25;;;-148.94;100.00
25722;BME280;13578;53.450;15.496;2022-07-03T07:57:35;61865.25;;;-148.94;100.00
25722;BME280;13578;53.450;15.496;2022-07-03T08:00:36;61865.25;;;-148.94;100.00
25722;BME280;13578;53.450;15.496;2022-07-03T08:03:37;61865.25;;;-148.94;100.00
25722;BME280;13578;53.450;15.496;2022-07-03T08:06:56;61865.25;;;-148.94;100.00
25722;BME280;13578;53.450;15.496;2022-07-03T08:09:57;61865.25;;;-148.94;100.00
25722;BME280;13578;53.450;15.496;2022-07-03T08:12:57;61865.25;;;-148.94;100.00
25722;BME280;13578;53.450;15.496;2022-07-03T08:15:58;61865.25;;;-148.94;100.00
25722;BME280;13578;53.450;15.496;2022-07-03T08:18:59;61865.25;;;-148.94;100.00
25722;BME280;13578;53.450;15.496;2022-07-03T08:22:00;61865.25;;;-148.94;100.00
25722;BME280;13578;53.450;15.496;2022-07-03T08:25:01;61865.25;;;-148.94;100.00
25722;BME280;13578;53.450;15.496;2022-07-03T08:28:02;61865.25;;;-148.94;100.00
25722;BME280;13578;53.450;15.496;2022-07-03T08:31:02;61865.25;;;-148.94;100.00
25722;BME280;13578;53.450;15.496;2022-07-03T08:34:03;61865.25;;;-148.94;100.00
25722;BME280;13578;53.450;15.496;2022-07-03T08:37:04;61865.25;;;-148.94;100.00
25722;BME280;13578;53.450;15.496;2022-07-03T08:40:05;61865.25;;;-148.94;100.00
25722;BME280;13578;53.450;15.496;2022-07-03T08:43:06;61865.25;;;-148.94;100.00
25722;BME280;13578;53.450;15.496;2022-07-03T08:46:10;61865.25;;;-148.94;100.00
25722;BME280;13578;53.450;15.496;2022-07-03T08:49:11;61865.25;;;-148.94;100.00
25722;BME280;13578;53.450;15.496;2022-07-03T08:52:12;61865.25;;;-148.94;100.00
25722;BME280;13578;53.450;15.496;2022-07-03T08:55:15;61865.25;;;-148.94;100.00
25722;BME280;13578;53.450;15.496;2022-07-03T08:58:16;61865.25;;;-148.94;100.00
25722;BME280;13578;53.450;15.496;2022-07-03T09:01:19;61865.25;;;-148.94;100.00
25722;BME280;13578;53.450;15.496;2022-07-03T09:04:21;61865.25;;;-148.94;100.00
25722;BME280;13578;53.450;15.496;2022-07-03T09:07:23;61865.25;;;-148.94;100.00
25722;BME280;13578;53.450;15.496;2022-07-03T09:10:24;61865.25;;;-148.94;100.00
25722;BME280;13578;53.450;15.496;2022-07-03T09:13:25;61865.25;;;-148.94;100.00
25722;BME280;13578;53.450;15.496;2022-07-03T09:16:25;61865.25;;;-148.94;100.00
25722;BME280;13578;53.450;15.496;2022-07-03T09:19:39;61865.25;;;-148.94;100.00
25722;BME280;13578;53.450;15.496;2022-07-03T09:22:41;61865.25;;;-148.94;100.00
25722;BME280;13578;53.450;15.496;2022-07-03T09:25:59;61865.25;;;-148.94;100.00
25722;BME280;13578;53.450;15.496;2022-07-03T09:29:01;61865.25;;;-148.94;100.00
25722;BME280;13578;53.450;15.496;2022-07-03T09:32:02;61865.25;;;-148.94;100.00
25722;BME280;13578;53.450;15.496;2022-07-03T09:35:29;61865.25;;;-148.94;100.00
25722;BME280;13578;53.450;15.496;2022-07-03T09:38:29;61865.25;;;-148.94;100.00
25722;BME280;13578;53.450;15.496;2022-07-03T09:41:50;61865.25;;;-148.94;100.00
25722;BME280;13578;53.450;15.496;2022-07-03T09:44:53;61865.25;;;-148.94;100.00
25722;BME280;13578;53.450;15.496;2022-07-03T09:47:54;61865.25;;;-148.94;100.00
25722;BME280;13578;53.450;15.496;2022-07-03T09:51:18;61865.25;;;-148.94;100.00
25722;BME280;13578;53.450;15.496;2022-07-03T09:54:21;61865.25;;;-148.94;100.00
25722;BME280;13578;53.450;15.496;2022-07-03T09:57:22;61865.25;;;-148.94;100.00
25722;BME280;13578;53.450;15.496;2022-07-03T10:03:25;61865.25;;;-148.94;100.00
25722;BME280;13578;53.450;15.496;2022-07-03T10:06:26;61865.25;;;-148.94;100.00
25722;BME280;13578;53.450;15.496;2022-07-03T10:09:28;61865.25;;;-148.94;100.00
25722;BME280;13578;53.450;15.496;2022-07-03T10:12:29;61865.25;;;-148.94;100.00
25722;BME280;13578;53.450;15.496;2022-07-03T10:15:32;61865.25;;;-148.94;100.00
25722;BME280;13578;53.450;15.496;2022-07-03T10:18:36;61865.25;;;-148.94;100.00
25722;BME280;13578;53.450;15.496;2022-07-03T10:21:38;61865.25;;;-148.94;100.00
25722;BME280;13578;53.450;15.496;2022-07-03T10:24:41;61865.25;;;-148.94;100.00
25722;BME280;13578;53.450;15.496;2022-07-03T10:27:46;61865.25;;;-148.94;100.00
25722;BME280;13578;53.450;15.496;2022-07-03T10:30:47;61865.25;;;-148.94;100.00
25722;BME280;13578;53.450;15.496;2022-07-03T10:33:48;61865.25;;;-148.94;100.00
25722;BME280;13578;53.450;15.496;2022-07-03T10:37:02;61865.25;;;-148.94;100.00
25722;BME280;13578;53.450;15.496;2022-07-03T10:40:18;61865.25;;;-148.94;100.00
25722;BME280;13578;53.450;15.496;2022-07-03T10:43:45;61865.25;;;-148.94;100.00
25722;BME280;13578;53.450;15.496;2022-07-03T10:47:05;61865.25;;;-148.94;100.00
25722;BME280;13578;53.450;15.496;2022-07-03T10:50:10;61865.25;;;-148.94;100.00
25722;BME280;13578;53.450;15.496;2022-07-03T10:53:22;61865.25;;;-148.94;100.00
25722;BME280;13578;53.450;15.496;2022-07-03T10:56:22;61865.25;;;-148.94;100.00
25722;BME280;13578;53.450;15.496;2022-07-03T11:02:49;61865.25;;;-148.94;100.00
25722;BME280;13578;53.450;15.496;2022-07-03T11:05:50;61865.25;;;-148.94;100.00
25722;BME280;13578;53.450;15.496;2022-07-03T11:09:03;61865.25;;;-148.94;100.00
25722;BME280;13578;53.450;15.496;2022-07-03T11:12:04;61865.25;;;-148.94;100.00
25722;BME280;13578;53.450;15.496;2022-07-03T11:15:27;61865.25;;;-148.94;100.00
25722;BME280;13578;53.450;15.496;2022-07-03T11:18:33;61865.25;;;-148.94;100.00
25722;BME280;13578;53.450;15.496;2022-07-03T11:21:36;61865.25;;;-148.94;100.00
25722;BME280;13578;53.450;15.496;2022-07-03T11:24:44;61865.25;;;-148.94;100.00
25722;BME280;13578;53.450;15.496;2022-07-03T11:27:45;61865.25;;;-148.94;100.00
25722;BME280;13578;53.450;15.496;2022-07-03T11:34:20;61865.25;;;-148.94;100.00
25722;BME280;13578;53.450;15.496;2022-07-03T11:37:22;61865.25;;;-148.94;100.00
25722;BME280;13578;53.450;15.496;2022-07-03T11:40:26;61865.25;;;-148.94;100.00
25722;BME280;13578;53.450;15.496;2022-07-03T11:43:28;61865.25;;;-148.94;100.00
25722;BME280;13578;53.450;15.496;2022-07-03T11:46:33;61865.25;;;-148.94;100.00
25722;BME280;13578;53.450;15.496;2022-07-03T11:49:34;61865.25;;;-148.94;100.00
25722;BME280;13578;53.450;15.496;2022-07-03T11:52:36;61865.25;;;-148.94;100.00
25722;BME280;13578;53.450;15.496;2022-07-03T11:55:46;61865.25;;;-148.94;100.00
25722;BME280;13578;53.450;15.496;2022-07-03T11:58:51;61865.25;;;-148.94;100.00
25722;BME280;13578;53.450;15.496;2022-07-03T12:01:52;61865.25;;;-148.94;100.00
25722;BME280;13578;53.450;15.496;2022-07-03T12:04:52;61865.25;;;-148.94;100.00
25722;BME280;13578;53.450;15.496;2022-07-03T12:08:05;61865.25;;;-148.94;100.00
25722;BME280;13578;53.450;15.496;2022-07-03T12:11:08;61865.25;;;-148.94;100.00
25722;BME280;13578;53.450;15.496;2022-07-03T12:14:08;61865.25;;;-148.94;100.00
25722;BME280;13578;53.450;15.496;2022-07-03T12:17:15;61865.25;;;-148.94;100.00
25722;BME280;13578;53.450;15.496;2022-07-03T12:20:17;61865.25;;;-148.94;100.00
25722;BME280;13578;53.450;15.496;2022-07-03T12:23:18;61865.25;;;-148.94;100.00
25722;BME280;13578;53.450;15.496;2022-07-03T12:26:32;61865.25;;;-148.94;100.00
25722;BME280;13578;53.450;15.496;2022-07-03T12:29:35;61865.25;;;-148.94;100.00
25722;BME280;13578;53.450;15.496;2022-07-03T12:32:38;61865.25;;;-148.94;100.00
25722;BME280;13578;53.450;15.496;2022-07-03T12:35:39;61865.25;;;-148.94;100.00
25722;BME280;13578;53.450;15.496;2022-07-03T12:38:39;61865.25;;;-148.94;100.00
25722;BME280;13578;53.450;15.496;2022-07-03T12:41:41;61865.25;;;-148.94;100.00
25722;BME280;13578;53.450;15.496;2022-07-03T12:44:41;61865.25;;;-148.94;100.00
25722;BME280;13578;53.450;15.496;2022-07-03T12:47:43;61865.25;;;-148.94;100.00
25722;BME280;13578;53.450;15.496;2022-07-03T12:50:48;61865.25;;;-148.94;100.00
25722;BME280;13578;53.450;15.496;2022-07-03T12:53:55;61865.25;;;-148.94;100.00
25722;BME280;13578;53.450;15.496;2022-07-03T12:57:07;61865.25;;;-148.94;100.00
25722;BME280;13578;53.450;15.496;2022-07-03T13:00:26;61865.25;;;-148.94;100.00
25722;BME280;13578;53.450;15.496;2022-07-03T13:03:31;61865.25;;;-148.94;100.00
25722;BME280;13578;53.450;15.496;2022-07-03T13:06:35;61865.25;;;-148.94;100.00
25722;BME280;13578;53.450;15.496;2022-07-03T13:09:36;61865.25;;;-148.94;100.00
25722;BME280;13578;53.450;15.496;2022-07-03T13:13:06;61865.25;;;-148.94;100.00
25722;BME280;13578;53.450;15.496;2022-07-03T13:16:23;61865.25;;;-148.94;100.00
25722;BME280;13578;53.450;15.496;2022-07-03T13:19:25;61865.25;;;-148.94;100.00
25722;BME280;13578;53.450;15.496;2022-07-03T13:22:26;61865.25;;;-148.94;100.00
25722;BME280;13578;53.450;15.496;2022-07-03T13:25:28;61865.25;;;-148.94;100.00
25722;BME280;13578;53.450;15.496;2022-07-03T13:28:29;61865.25;;;-148.94;100.00
25722;BME280;13578;53.450;15.496;2022-07-03T13:31:30;61865.25;;;-148.94;100.00
25722;BME280;13578;53.450;15.496;2022-07-03T13:34:31;61865.25;;;-148.94;100.00
25722;BME280;13578;53.450;15.496;2022-07-03T13:37:32;61865.25;;;-148.94;100.00
25722;BME280;13578;53.450;15.496;2022-07-03T13:40:33;61865.25;;;-148.94;100.00
25722;BME280;13578;53.450;15.496;2022-07-03T13:43:35;61865.25;;;-148.94;100.00
25722;BME280;13578;53.450;15.496;2022-07-03T13:46:36;61865.25;;;-148.94;100.00
25722;BME280;13578;53.450;15.496;2022-07-03T13:49:36;61865.25;;;-148.94;100.00
25722;BME280;13578;53.450;15.496;2022-07-03T13:52:37;61865.25;;;-148.94;100.00
25722;BME280;13578;53.450;15.496;2022-07-03T13:55:38;61865.25;;;-148.94;100.00
25722;BME280;13578;53.450;15.496;2022-07-03T13:58:41;61865.25;;;-148.94;100.00
25722;BME280;13578;53.450;15.496;2022-07-03T14:01:42;61865.25;;;-148.94;100.00
25722;BME280;13578;53.450;15.496;2022-07-03T14:04:42;61865.25;;;-148.94;100.00
25722;BME280;13578;53.450;15.496;2022-07-03T14:07:43;61865.25;;;-148.94;100.00
25722;BME280;13578;53.450;15.496;2022-07-03T14:10:44;61865.25;;;-148.94;100.00
25722;BME280;13578;53.450;15.496;2022-07-03T14:13:45;61865.25;;;-148.94;100.00
25722;BME280;13578;53.450;15.496;2022-07-03T14:16:46;61865.25;;;-148.94;100.00
25722;BME280;13578;53.450;15.496;2022-07-03T14:19:46;61865.25;;;-148.94;100.00
25722;BME280;13578;53.450;15.496;2022-07-03T14:22:47;61865.25;;;-148.94;100.00
25722;BME280;13578;53.450;15.496;2022-07-03T14:25:48;61865.25;;;-148.94;100.00
25722;BME280;13578;53.450;15.496;2022-07-03T14:28:48;61865.25;;;-148.94;100.00
25722;BME280;13578;53.450;15.496;2022-07-03T14:32:07;61865.25;;;-148.94;100.00
25722;BME280;13578;53.450;15.496;2022-07-03T14:35:26;61865.25;;;-148.94;100.00
25722;BME280;13578;53.450;15.496;2022-07-03T14:38:27;61865.25;;;-148.94;100.00
25722;BME280;13578;53.450;15.496;2022-07-03T14:41:27;61865.25;;;-148.94;100.00
25722;BME280;13578;53.450;15.496;2022-07-03T14:44:29;61865.25;;;-148.94;100.00
25722;BME280;13578;53.450;15.496;2022-07-03T14:47:30;61865.25;;;-148.94;100.00
25722;BME280;13578;53.450;15.496;2022-07-03T14:50:31;61865.25;;;-148.94;100.00
25722;BME280;13578;53.450;15.496;2022-07-03T14:53:31;61865.25;;;-148.94;100.00
25722;BME280;13578;53.450;15.496;2022-07-03T14:56:38;61865.25;;;-148.94;100.00
25722;BME280;13578;53.450;15.496;2022-07-03T15:03:05;61865.25;;;-148.94;100.00
25722;BME280;13578;53.450;15.496;2022-07-03T15:06:12;61865.25;;;-148.94;100.00
25722;BME280;13578;53.450;15.496;2022-07-03T15:09:26;61865.25;;;-148.94;100.00
25722;BME280;13578;53.450;15.496;2022-07-03T15:12:30;61865.25;;;-148.94;100.00
25722;BME280;13578;53.450;15.496;2022-07-03T15:15:31;61865.25;;;-148.94;100.00
25722;BME280;13578;53.450;15.496;2022-07-03T15:18:33;61865.25;;;-148.94;100.00
25722;BME280;13578;53.450;15.496;2022-07-03T15:21:36;61865.25;;;-148.94;100.00
25722;BME280;13578;53.450;15.496;2022-07-03T15:24:37;61865.25;;;-148.94;100.00
25722;BME280;13578;53.450;15.496;2022-07-03T15:27:39;61865.25;;;-148.94;100.00
25722;BME280;13578;53.450;15.496;2022-07-03T15:30:52;61865.25;;;-148.94;100.00
25722;BME280;13578;53.450;15.496;2022-07-03T15:33:55;61865.25;;;-148.94;100.00
25722;BME280;13578;53.450;15.496;2022-07-03T15:37:13;61865.25;;;-148.94;100.00
25722;BME280;13578;53.450;15.496;2022-07-03T15:40:25;61865.25;;;-148.94;100.00
25722;BME280;13578;53.450;15.496;2022-07-03T15:50:04;61865.25;;;-148.94;100.00
25722;BME280;13578;53.450;15.496;2022-07-03T15:53:08;61865.25;;;-148.94;100.00
25722;BME280;13578;53.450;15.496;2022-07-03T15:56:11;61865.25;;;-148.94;100.00
25722;BME280;13578;53.450;15.496;2022-07-03T15:59:16;61865.25;;;-148.94;100.00
25722;BME280;13578;53.450;15.496;2022-07-03T16:02:25;61865.25;;;-148.94;100.00
25722;BME280;13578;53.450;15.496;2022-07-03T16:05:36;61865.25;;;-148.94;100.00